Time;durP1;ratioP1;P1;durP2;ratioP2;P2;SDS_P1;SDS_P2;PMS_P1;PMS_P2;Temp;Humidity;BMP_temperature;BMP_pressure;BME280_temperature;BME280_humidity;BME280_pressure;Samples;Min_cycle;Max_cycle;Signal;HPM_P1;HPM_P2
2023/08/15 00:01:20;;;;;;;12.05;9.45;;;19.20;99.90;;;;;;5016286;28;20484;-67
2023/08/15 00:03:46;;;;;;;9.90;7.72;;;19.20;99.90;;;;;;5034237;28;20564;-68
2023/08/15 00:06:13;;;;;;;10.52;7.50;;;19.20;99.90;;;;;;5008310;28;20037;-68
2023/08/15 00:08:38;;;;;;;10.20;7.25;;;19.10;99.90;;;;;;5032871;28;20491;-67
2023/08/15 00:11:04;;;;;;;13.05;9.68;;;19.10;99.90;;;;;;5033605;28;20060;-66
2023/08/15 00:13:30;;;;;;;7.45;6.68;;;19.10;99.90;;;;;;5023293;28;20052;-68
2023/08/15 00:15:55;;;;;;;13.35;9.20;;;19.00;99.90;;;;;;5029325;28;20030;-68
2023/08/15 00:18:21;;;;;;;9.23;6.15;;;19.00;99.90;;;;;;5032878;28;20041;-66
2023/08/15 00:20:48;;;;;;;5.70;4.72;;;19.00;99.90;;;;;;5032977;28;20038;-66
2023/08/15 00:23:14;;;;;;;12.00;7.38;;;18.90;99.90;;;;;;5026305;28;20083;-67
2023/08/15 00:25:39;;;;;;;8.65;6.20;;;18.90;99.90;;;;;;5033229;28;20037;-66
2023/08/15 00:28:05;;;;;;;14.20;8.95;;;18.90;99.90;;;;;;5032869;28;20044;-66
2023/08/15 00:30:32;;;;;;;10.90;8.10;;;18.90;99.90;;;;;;4995300;28;20045;-66
2023/08/15 00:32:58;;;;;;;12.30;9.57;;;18.90;99.90;;;;;;5028173;28;20041;-66
2023/08/15 00:35:24;;;;;;;9.45;7.10;;;18.90;99.90;;;;;;5015561;28;20507;-66
2023/08/15 00:37:50;;;;;;;10.57;6.68;;;18.80;99.90;;;;;;5030432;28;20038;-68
2023/08/15 00:40:15;;;;;;;4.80;3.83;;;18.70;99.90;;;;;;5022169;28;20029;-65
2023/08/15 00:42:41;;;;;;;5.57;4.40;;;18.60;99.90;;;;;;5032717;28;20609;-67
2023/08/15 00:45:07;;;;;;;9.02;5.40;;;18.50;99.90;;;;;;5028822;28;20041;-65
2023/08/15 00:47:33;;;;;;;9.57;6.85;;;18.40;99.90;;;;;;5023162;28;20506;-66
2023/08/15 00:50:00;;;;;;;10.45;7.63;;;18.40;99.90;;;;;;5015187;28;20037;-66
2023/08/15 00:52:26;;;;;;;10.35;6.30;;;18.30;99.90;;;;;;5033014;28;20041;-67
2023/08/15 00:54:54;;;;;;;9.02;5.38;;;18.30;99.90;;;;;;5030158;28;20399;-68
2023/08/15 00:57:21;;;;;;;7.65;5.53;;;18.20;99.90;;;;;;5022706;28;20132;-68
2023/08/15 00:59:47;;;;;;;8.73;6.75;;;18.10;99.90;;;;;;5032722;28;20025;-66
2023/08/15 01:02:12;;;;;;;8.10;5.97;;;18.10;99.90;;;;;;5026936;28;20030;-68
2023/08/15 01:04:40;;;;;;;7.35;5.72;;;18.00;99.90;;;;;;5023081;28;20029;-67
2023/08/15 01:07:05;;;;;;;8.70;5.30;;;18.00;99.90;;;;;;5032265;28;20104;-68
2023/08/15 01:09:31;;;;;;;4.88;4.30;;;17.90;99.90;;;;;;5068203;22;20041;-67
2023/08/15 01:12:04;;;;;;;7.97;4.40;;;17.80;99.90;;;;;;5011830;28;20108;-66
2023/08/15 01:14:38;;;;;;;4.30;3.90;;;17.70;99.90;;;;;;5012766;28;20065;-67
2023/08/15 01:17:06;;;;;;;7.00;4.30;;;17.70;99.90;;;;;;4991512;28;20265;-66
2023/08/15 01:19:40;;;;;;;7.90;6.35;;;17.60;99.90;;;;;;5005877;28;20034;-68
2023/08/15 01:22:21;;;;;;;6.68;5.05;;;17.70;99.90;;;;;;5012195;28;20076;-66
2023/08/15 01:24:47;;;;;;;6.03;4.73;;;17.80;99.90;;;;;;5019146;28;20034;-66
2023/08/15 01:27:13;;;;;;;7.93;5.70;;;17.70;99.90;;;;;;5012680;28;20042;-67
2023/08/15 01:29:38;;;;;;;11.23;6.30;;;17.70;99.90;;;;;;5009172;28;20033;-65
2023/08/15 01:32:19;;;;;;;11.70;8.00;;;17.70;99.90;;;;;;5011864;28;20034;-66
2023/08/15 01:35:09;;;;;;;8.40;6.53;;;17.80;99.90;;;;;;4975398;28;20503;-65
2023/08/15 01:37:37;;;;;;;11.50;9.13;;;17.80;99.90;;;;;;5014786;28;20267;-68
2023/08/15 01:40:04;;;;;;;16.00;10.25;;;17.80;99.90;;;;;;5012289;28;20112;-67
2023/08/15 01:42:32;;;;;;;12.07;9.40;;;17.80;99.90;;;;;;5012328;28;20038;-68
2023/08/15 01:44:59;;;;;;;13.27;10.25;;;17.80;99.90;;;;;;4995207;28;20042;-67
2023/08/15 01:47:25;;;;;;;14.57;10.18;;;17.80;99.90;;;;;;5010856;28;20057;-68
2023/08/15 01:49:51;;;;;;;15.32;11.05;;;17.70;99.90;;;;;;4994929;28;20048;-66
2023/08/15 01:52:16;;;;;;;15.90;11.00;;;17.70;99.90;;;;;;5013687;28;20033;-65
2023/08/15 01:54:42;;;;;;;11.38;8.80;;;17.80;99.90;;;;;;5011650;28;20484;-68
2023/08/15 01:57:08;;;;;;;10.85;8.65;;;17.80;99.90;;;;;;5011741;28;20042;-66
2023/08/15 01:59:33;;;;;;;11.77;8.80;;;17.80;99.90;;;;;;5011434;28;20113;-65
2023/08/15 02:01:59;;;;;;;10.73;9.25;;;17.70;99.90;;;;;;5006586;28;20476;-66
2023/08/15 02:04:24;;;;;;;11.60;9.10;;;17.60;99.90;;;;;;4992606;28;20042;-66
2023/08/15 02:06:50;;;;;;;13.27;9.13;;;17.70;99.90;;;;;;5012113;28;20046;-67
2023/08/15 02:09:16;;;;;;;12.02;8.93;;;17.80;99.90;;;;;;5000988;28;20049;-66
2023/08/15 02:11:42;;;;;;;9.13;8.15;;;17.80;99.90;;;;;;5004229;28;20029;-66
2023/08/15 02:14:07;;;;;;;13.43;11.50;;;17.80;99.90;;;;;;5011707;28;20037;-65
2023/08/15 02:16:33;;;;;;;13.73;9.77;;;17.80;99.90;;;;;;5008269;28;20078;-66
2023/08/15 02:18:59;;;;;;;13.73;10.57;;;17.80;99.90;;;;;;5009450;28;20104;-66
2023/08/15 02:21:24;;;;;;;13.82;9.70;;;17.70;99.90;;;;;;5010625;28;20096;-68
2023/08/15 02:23:50;;;;;;;13.65;10.07;;;17.70;99.90;;;;;;5010660;28;20030;-68
2023/08/15 02:26:15;;;;;;;13.05;9.55;;;17.80;99.90;;;;;;5013354;28;20532;-66
2023/08/15 02:28:41;;;;;;;9.85;6.53;;;17.80;99.90;;;;;;4994344;28;20034;-66
2023/08/15 02:31:10;;;;;;;8.13;6.70;;;17.70;99.90;;;;;;5011283;28;20395;-66
2023/08/15 02:33:35;;;;;;;8.68;7.10;;;17.50;99.90;;;;;;5014120;28;20037;-66
2023/08/15 02:36:05;;;;;;;11.05;7.53;;;17.40;99.90;;;;;;5012181;28;20037;-66
2023/08/15 02:38:35;;;;;;;10.10;8.32;;;17.40;99.90;;;;;;5010347;28;20113;-67
2023/08/15 02:41:00;;;;;;;11.65;8.98;;;17.30;99.90;;;;;;4991595;28;20061;-66
2023/08/15 02:43:26;;;;;;;14.02;9.65;;;17.30;99.90;;;;;;5001026;28;20045;-67
2023/08/15 02:45:52;;;;;;;13.02;10.15;;;17.30;99.90;;;;;;5018921;28;20030;-65
2023/08/15 02:48:19;;;;;;;16.13;10.45;;;17.40;99.90;;;;;;5014420;28;20100;-67
2023/08/15 02:50:44;;;;;;;11.13;8.98;;;17.40;99.90;;;;;;5000127;28;20037;-65
2023/08/15 02:53:10;;;;;;;9.48;8.35;;;17.40;99.90;;;;;;5019157;28;20041;-68
2023/08/15 02:55:35;;;;;;;12.32;9.90;;;17.30;99.90;;;;;;5015074;28;20038;-66
2023/08/15 02:58:01;;;;;;;12.38;9.10;;;17.30;99.90;;;;;;5014940;28;20153;-67
2023/08/15 03:00:27;;;;;;;9.55;8.10;;;17.40;99.90;;;;;;5025823;28;20048;-67
2023/08/15 03:02:53;;;;;;;10.15;7.88;;;17.40;99.90;;;;;;4997420;28;20044;-68
2023/08/15 03:05:18;;;;;;;15.20;11.20;;;17.40;99.90;;;;;;5015033;28;20053;-68
2023/08/15 03:07:44;;;;;;;11.82;10.45;;;17.50;99.90;;;;;;5014169;28;20038;-67
2023/08/15 03:10:10;;;;;;;16.25;12.77;;;17.50;99.90;;;;;;4998089;28;20124;-68
2023/08/15 03:12:35;;;;;;;14.40;12.30;;;17.60;99.90;;;;;;5014229;28;20049;-67
2023/08/15 03:15:01;;;;;;;15.48;10.77;;;17.60;99.90;;;;;;5007830;28;20114;-67
2023/08/15 03:17:27;;;;;;;13.20;10.52;;;17.70;99.90;;;;;;5004987;28;20101;-67
2023/08/15 03:19:53;;;;;;;16.90;12.98;;;17.70;99.90;;;;;;5014773;28;20479;-65
2023/08/15 03:22:19;;;;;;;27.23;17.15;;;17.60;99.90;;;;;;5015062;28;20033;-66
2023/08/15 03:24:45;;;;;;;26.25;18.38;;;17.80;99.90;;;;;;5012734;28;20034;-66
2023/08/15 03:27:10;;;;;;;26.95;19.30;;;18.00;99.90;;;;;;5013431;28;20037;-67
2023/08/15 03:29:36;;;;;;;28.83;19.83;;;18.10;99.90;;;;;;4992873;28;20050;-68
2023/08/15 03:32:02;;;;;;;28.48;19.48;;;18.20;99.90;;;;;;4996566;28;20049;-69
2023/08/15 03:34:27;;;;;;;28.45;19.90;;;18.40;99.90;;;;;;5012713;28;20042;-68
2023/08/15 03:36:53;;;;;;;23.98;17.73;;;18.40;99.90;;;;;;5014370;28;20093;-66
2023/08/15 03:39:19;;;;;;;18.23;14.30;;;18.50;99.90;;;;;;5014120;28;20400;-65
2023/08/15 03:41:45;;;;;;;22.95;17.73;;;18.40;99.90;;;;;;5010697;28;20548;-65
2023/08/15 03:44:10;;;;;;;22.92;16.50;;;18.40;99.90;;;;;;4987212;28;20038;-66
2023/08/15 03:46:36;;;;;;;24.02;18.95;;;18.40;99.90;;;;;;5022805;28;20172;-65
2023/08/15 03:49:02;;;;;;;27.33;19.35;;;18.50;99.90;;;;;;5011325;28;20069;-66
2023/08/15 03:51:28;;;;;;;29.15;20.17;;;18.60;99.90;;;;;;5006517;28;20046;-65
2023/08/15 03:53:54;;;;;;;25.15;19.83;;;18.60;99.90;;;;;;5022115;28;20046;-66
2023/08/15 03:56:19;;;;;;;27.85;20.15;;;18.60;99.90;;;;;;5013236;28;20046;-67
2023/08/15 03:58:45;;;;;;;26.77;20.58;;;18.70;99.90;;;;;;5007446;28;20872;-65
2023/08/15 04:01:10;;;;;;;26.67;20.13;;;18.80;99.90;;;;;;4996071;28;20107;-68
2023/08/15 04:03:36;;;;;;;29.20;20.83;;;18.90;99.90;;;;;;5014163;28;20172;-66
2023/08/15 04:06:02;;;;;;;28.98;21.38;;;18.90;99.90;;;;;;5008858;28;20030;-66
2023/08/15 04:08:27;;;;;;;31.35;21.48;;;18.90;99.90;;;;;;5009660;28;20096;-68
2023/08/15 04:10:54;;;;;;;32.70;22.17;;;19.00;99.90;;;;;;5013726;28;20048;-67
2023/08/15 04:13:20;;;;;;;31.55;22.30;;;19.00;99.90;;;;;;5013732;28;20046;-68
2023/08/15 04:15:46;;;;;;;36.25;23.38;;;19.10;99.90;;;;;;5013594;28;20048;-65
2023/08/15 04:18:11;;;;;;;34.78;21.35;;;19.10;99.90;;;;;;5012738;28;20408;-66
2023/08/15 04:20:39;;;;;;;30.05;20.83;;;19.20;99.90;;;;;;5014077;28;20034;-66
2023/08/15 04:23:06;;;;;;;31.90;20.65;;;19.20;99.90;;;;;;5014427;28;20025;-67
2023/08/15 04:25:36;;;;;;;33.88;21.45;;;19.20;99.90;;;;;;5016883;28;20045;-66
2023/08/15 04:28:03;;;;;;;28.77;20.27;;;19.20;99.90;;;;;;5012406;28;20042;-67
2023/08/15 04:30:29;;;;;;;31.60;21.02;;;19.20;99.90;;;;;;4992477;28;20052;-66
2023/08/15 04:32:58;;;;;;;28.73;20.77;;;19.20;99.90;;;;;;5005784;28;20491;-67
2023/08/15 04:35:24;;;;;;;27.17;19.60;;;19.20;99.90;;;;;;5011650;28;20074;-66
2023/08/15 04:37:50;;;;;;;26.00;19.40;;;19.20;99.90;;;;;;4994227;28;20120;-66
2023/08/15 04:40:29;;;;;;;34.38;20.83;;;19.20;99.90;;;;;;5014789;28;20037;-65
2023/08/15 04:42:54;;;;;;;31.25;20.25;;;19.20;99.90;;;;;;5007475;28;20404;-67
2023/08/15 04:45:20;;;;;;;28.35;20.00;;;19.20;99.90;;;;;;5009655;28;20044;-67
2023/08/15 04:47:45;;;;;;;27.23;19.40;;;19.20;99.90;;;;;;5016006;28;20044;-67
2023/08/15 04:50:11;;;;;;;29.08;20.10;;;19.20;99.90;;;;;;4995600;28;20049;-66
2023/08/15 04:52:37;;;;;;;31.05;19.02;;;19.20;99.90;;;;;;5009364;28;20115;-68
2023/08/15 04:55:02;;;;;;;25.20;18.77;;;19.10;99.90;;;;;;5006585;28;20117;-68
2023/08/15 04:57:28;;;;;;;26.27;19.67;;;19.20;99.90;;;;;;4986994;28;20046;-68
2023/08/15 04:59:53;;;;;;;31.73;20.48;;;19.10;99.90;;;;;;5003525;28;20515;-67
2023/08/15 05:02:19;;;;;;;31.67;19.85;;;19.20;99.90;;;;;;4962001;28;20081;-66
2023/08/15 05:04:45;;;;;;;28.38;19.50;;;19.20;99.90;;;;;;4995795;28;20029;-64
2023/08/15 05:07:10;;;;;;;28.02;20.13;;;19.10;99.90;;;;;;4992963;28;20418;-67
2023/08/15 05:09:37;;;;;;;26.02;20.67;;;19.10;99.90;;;;;;4996809;28;20037;-67
2023/08/15 05:12:03;;;;;;;26.83;18.67;;;19.10;99.90;;;;;;4996424;28;20803;-68
2023/08/15 05:14:28;;;;;;;26.23;19.02;;;19.20;99.90;;;;;;4979674;28;21049;-66
2023/08/15 05:16:54;;;;;;;29.67;18.02;;;19.20;99.90;;;;;;4994440;28;20042;-67
2023/08/15 05:19:19;;;;;;;30.17;18.85;;;19.20;99.90;;;;;;4976351;28;20953;-67
2023/08/15 05:21:45;;;;;;;26.27;17.25;;;19.10;99.90;;;;;;4995461;28;20049;-65
2023/08/15 05:24:11;;;;;;;21.67;16.70;;;19.20;99.90;;;;;;4997134;28;20856;-67
2023/08/15 05:26:36;;;;;;;26.65;16.52;;;19.20;99.90;;;;;;4977066;28;20048;-66
2023/08/15 05:29:02;;;;;;;23.58;16.17;;;19.20;99.90;;;;;;4984783;28;20099;-67
2023/08/15 05:31:28;;;;;;;21.00;16.35;;;19.20;99.90;;;;;;4996910;28;20049;-65
2023/08/15 05:33:53;;;;;;;21.15;15.85;;;19.20;99.90;;;;;;4994129;28;20034;-67
2023/08/15 05:36:19;;;;;;;21.17;15.05;;;19.20;99.90;;;;;;4993137;28;20045;-67
2023/08/15 05:38:45;;;;;;;25.40;15.57;;;19.20;99.90;;;;;;4976797;28;20046;-67
2023/08/15 05:41:10;;;;;;;23.05;14.80;;;19.20;99.90;;;;;;4997120;28;20049;-67
2023/08/15 05:43:36;;;;;;;18.80;14.73;;;19.20;99.90;;;;;;4994144;28;20096;-66
2023/08/15 05:46:02;;;;;;;23.17;15.43;;;19.10;99.90;;;;;;4992272;28;20834;-65
2023/08/15 05:48:29;;;;;;;22.20;15.43;;;19.10;99.90;;;;;;5008157;28;20037;-66
2023/08/15 05:50:55;;;;;;;23.17;15.18;;;19.10;99.90;;;;;;5011988;28;20060;-67
2023/08/15 05:53:20;;;;;;;18.33;14.07;;;19.10;99.90;;;;;;5014492;28;20396;-69
2023/08/15 05:55:46;;;;;;;21.23;14.57;;;19.20;99.90;;;;;;5003729;28;20030;-69
2023/08/15 05:58:11;;;;;;;22.27;13.77;;;19.20;99.90;;;;;;5005427;28;20077;-68
2023/08/15 06:00:38;;;;;;;27.17;13.82;;;19.20;99.90;;;;;;5001870;28;20942;-70
2023/08/15 06:03:05;;;;;;;21.25;13.30;;;19.20;99.90;;;;;;5003366;28;20068;-70
2023/08/15 06:05:31;;;;;;;20.60;13.07;;;19.20;99.90;;;;;;4984870;28;20126;-66
2023/08/15 06:07:56;;;;;;;18.88;12.50;;;19.20;99.90;;;;;;5002552;28;20046;-69
2023/08/15 06:10:23;;;;;;;21.27;12.70;;;19.10;99.90;;;;;;5012245;28;20042;-69
2023/08/15 06:12:48;;;;;;;20.08;12.55;;;19.10;99.90;;;;;;5007655;28;20033;-69
2023/08/15 06:15:14;;;;;;;18.83;12.80;;;19.00;99.90;;;;;;5011170;28;20079;-68
2023/08/15 06:17:41;;;;;;;20.08;12.57;;;19.00;99.90;;;;;;5010835;28;20046;-68
2023/08/15 06:20:08;;;;;;;20.25;11.55;;;19.00;99.90;;;;;;4994463;28;20038;-69
2023/08/15 06:22:33;;;;;;;17.83;11.85;;;19.00;99.90;;;;;;5003582;28;20049;-69
2023/08/15 06:24:59;;;;;;;18.85;12.18;;;19.00;99.90;;;;;;5011485;28;20038;-69
2023/08/15 06:27:25;;;;;;;18.83;11.43;;;19.20;99.90;;;;;;5008011;28;20057;-69
2023/08/15 06:29:50;;;;;;;18.70;11.18;;;19.40;99.90;;;;;;4998214;28;20038;-67
2023/08/15 06:32:30;;;;;;;16.67;10.45;;;19.50;99.90;;;;;;4979014;28;20050;-66
2023/08/15 06:34:56;;;;;;;14.98;9.95;;;19.70;99.90;;;;;;4989660;28;20136;-70
2023/08/15 06:37:22;;;;;;;15.02;10.02;;;19.80;99.90;;;;;;4995107;28;20447;-70
2023/08/15 06:39:48;;;;;;;15.55;9.00;;;19.80;99.90;;;;;;4993518;28;20575;-70
2023/08/15 06:42:14;;;;;;;15.23;8.77;;;19.80;99.90;;;;;;4971974;28;20042;-70
2023/08/15 06:44:43;;;;;;;15.90;8.75;;;19.70;99.90;;;;;;4968964;28;20449;-68
2023/08/15 06:47:09;;;;;;;17.17;8.48;;;19.80;99.90;;;;;;4995026;28;20033;-70
2023/08/15 06:49:35;;;;;;;17.27;8.95;;;19.70;99.90;;;;;;4998249;28;20088;-68
2023/08/15 06:52:00;;;;;;;13.20;7.70;;;19.70;99.90;;;;;;4995394;28;20479;-69
2023/08/15 06:54:26;;;;;;;14.27;7.75;;;19.70;99.90;;;;;;5003338;28;20084;-68
2023/08/15 06:56:52;;;;;;;14.35;7.63;;;19.70;99.90;;;;;;4989143;28;20046;-73
2023/08/15 06:59:18;;;;;;;14.68;8.30;;;19.80;99.90;;;;;;4974242;28;20931;-67
2023/08/15 07:01:44;;;;;;;13.07;8.13;;;19.80;99.90;;;;;;5000076;28;20038;-66
2023/08/15 07:04:10;;;;;;;16.80;7.47;;;19.90;99.90;;;;;;4994034;28;20104;-66
2023/08/15 07:06:37;;;;;;;12.18;7.45;;;19.90;99.90;;;;;;4982317;28;20538;-68
2023/08/15 07:09:06;;;;;;;15.13;7.63;;;19.90;99.90;;;;;;5025699;23;20638;-73
2023/08/15 07:11:32;;;;;;;15.13;7.15;;;20.00;99.90;;;;;;4969984;28;20061;-74
2023/08/15 07:13:57;;;;;;;12.98;7.00;;;20.00;99.90;;;;;;4979249;28;20030;-73
2023/08/15 07:16:26;;;;;;;17.55;7.20;;;20.00;99.90;;;;;;4981425;28;20034;-70
2023/08/15 07:18:52;;;;;;;15.13;7.85;;;20.10;99.90;;;;;;4943402;28;20050;-72
2023/08/15 07:21:18;;;;;;;14.15;7.10;;;20.10;99.90;;;;;;4964058;28;20117;-72
2023/08/15 07:23:43;;;;;;;13.13;6.50;;;20.10;99.90;;;;;;4960252;28;20046;-72
2023/08/15 07:26:09;;;;;;;15.50;6.95;;;20.20;99.90;;;;;;4947616;28;20051;-72
2023/08/15 07:28:35;;;;;;;12.45;6.43;;;20.20;99.90;;;;;;4949902;28;20126;-72
2023/08/15 07:31:01;;;;;;;14.05;6.28;;;20.20;99.90;;;;;;4963671;28;20153;-73
2023/08/15 07:33:27;;;;;;;16.30;6.47;;;20.20;99.90;;;;;;4942408;28;20365;-71
2023/08/15 07:35:52;;;;;;;13.65;6.47;;;20.20;99.90;;;;;;4940224;28;20046;-72
2023/08/15 07:38:18;;;;;;;17.08;6.40;;;20.40;99.90;;;;;;4962794;28;20058;-72
2023/08/15 07:40:44;;;;;;;15.50;6.57;;;20.40;99.90;;;;;;4965431;28;20248;-73
2023/08/15 07:43:09;;;;;;;14.95;6.22;;;20.40;99.90;;;;;;4956002;28;20473;-73
2023/08/15 07:45:35;;;;;;;13.10;5.70;;;20.50;99.90;;;;;;5384653;22;20039;-70
2023/08/15 07:48:01;;;;;;;29.35;6.65;;;20.60;99.90;;;;;;4983606;28;20042;-70
2023/08/15 07:50:28;;;;;;;17.60;6.47;;;20.70;99.90;;;;;;4983059;28;20480;-70
2023/08/15 07:52:57;;;;;;;12.18;5.57;;;20.90;99.90;;;;;;4973946;28;20092;-71
2023/08/15 07:55:23;;;;;;;12.35;5.95;;;21.00;99.90;;;;;;5004808;28;20100;-71
2023/08/15 07:57:49;;;;;;;15.23;6.45;;;21.10;99.90;;;;;;4974164;28;20054;-71
2023/08/15 08:00:15;;;;;;;10.43;5.25;;;21.10;99.90;;;;;;5004994;23;20048;-68
2023/08/15 08:02:42;;;;;;;12.38;5.82;;;21.10;99.90;;;;;;4989791;28;20443;-68
2023/08/15 08:05:09;;;;;;;15.55;5.35;;;21.20;99.90;;;;;;4994272;28;20068;-67
2023/08/15 08:07:36;;;;;;;8.95;5.15;;;21.10;99.90;;;;;;4995818;28;20042;-67
2023/08/15 08:10:02;;;;;;;14.40;5.70;;;21.10;99.90;;;;;;4982974;28;20155;-66
2023/08/15 08:12:29;;;;;;;9.68;6.13;;;21.20;99.90;;;;;;4988933;28;20140;-66
2023/08/15 08:14:55;;;;;;;11.57;6.60;;;21.10;99.90;;;;;;4989634;28;20503;-67
2023/08/15 08:17:21;;;;;;;12.85;7.10;;;21.10;99.90;;;;;;4987336;28;20049;-67
2023/08/15 08:19:46;;;;;;;13.85;8.38;;;21.20;99.90;;;;;;5001328;28;20109;-69
2023/08/15 08:22:12;;;;;;;14.68;8.80;;;21.20;99.90;;;;;;5001866;28;20652;-67
2023/08/15 08:24:38;;;;;;;13.00;8.25;;;21.30;99.90;;;;;;4990344;28;20037;-67
2023/08/15 08:27:04;;;;;;;14.68;9.18;;;21.40;99.90;;;;;;4971073;28;20050;-67
2023/08/15 08:29:30;;;;;;;16.08;9.23;;;21.30;99.90;;;;;;4995507;28;20042;-67
2023/08/15 08:31:55;;;;;;;15.00;9.80;;;21.20;99.90;;;;;;4997656;28;20092;-68
2023/08/15 08:34:21;;;;;;;15.90;9.43;;;21.10;99.90;;;;;;4990982;28;20050;-67
2023/08/15 08:36:47;;;;;;;15.68;10.18;;;21.10;99.90;;;;;;5001160;28;20046;-68
2023/08/15 08:39:12;;;;;;;16.02;10.35;;;21.10;99.90;;;;;;4980974;28;20040;-67
2023/08/15 08:41:39;;;;;;;15.27;9.55;;;21.10;99.90;;;;;;4992774;28;20454;-67
2023/08/15 08:44:05;;;;;;;17.83;10.35;;;21.00;99.90;;;;;;4983694;28;20381;-66
2023/08/15 08:46:32;;;;;;;13.30;9.43;;;21.00;99.90;;;;;;4983016;28;20058;-65
2023/08/15 08:48:58;;;;;;;17.67;10.95;;;20.90;99.90;;;;;;4977839;28;20048;-67
2023/08/15 08:51:25;;;;;;;17.27;10.07;;;20.90;99.90;;;;;;4985702;28;20074;-64
2023/08/15 08:53:51;;;;;;;13.23;8.77;;;21.00;99.90;;;;;;4980093;28;20546;-65
2023/08/15 08:56:18;;;;;;;10.35;6.10;;;21.20;99.90;;;;;;4972909;28;20889;-68
2023/08/15 08:58:48;;;;;;;24.17;11.77;;;21.30;99.90;;;;;;4983032;28;20088;-66
2023/08/15 09:01:14;;;;;;;15.13;6.05;;;21.40;99.90;;;;;;4983509;28;20394;-68
2023/08/15 09:03:40;;;;;;;12.57;5.20;;;21.40;99.90;;;;;;4994628;28;20046;-67
2023/08/15 09:06:07;;;;;;;10.60;5.60;;;21.40;99.90;;;;;;4975375;28;20042;-67
2023/08/15 09:08:32;;;;;;;11.15;5.47;;;21.40;99.90;;;;;;4998795;28;20057;-68
2023/08/15 09:10:58;;;;;;;18.90;9.07;;;21.50;99.90;;;;;;5002055;28;20049;-67
2023/08/15 09:13:24;;;;;;;10.50;4.60;;;21.60;99.90;;;;;;4992228;28;20159;-67
2023/08/15 09:15:51;;;;;;;8.27;5.00;;;21.60;99.90;;;;;;4995631;28;20052;-67
2023/08/15 09:18:22;;;;;;;10.60;5.10;;;21.70;99.90;;;;;;4982450;28;20076;-67
2023/08/15 09:20:48;;;;;;;10.27;3.88;;;21.90;99.90;;;;;;4997280;28;20052;-66
2023/08/15 09:23:15;;;;;;;7.85;4.40;;;21.90;99.90;;;;;;4984675;28;20034;-68
2023/08/15 09:25:40;;;;;;;11.48;3.95;;;22.00;99.90;;;;;;5000210;28;20136;-68
2023/08/15 09:28:06;;;;;;;8.23;3.72;;;21.80;99.90;;;;;;5001069;28;20342;-68
2023/08/15 09:30:32;;;;;;;9.73;4.10;;;21.80;99.90;;;;;;4979406;28;20116;-66
2023/08/15 09:33:01;;;;;;;7.57;3.60;;;21.80;99.90;;;;;;4996735;28;20045;-67
2023/08/15 09:35:26;;;;;;;7.63;3.50;;;21.90;99.90;;;;;;5000048;28;20038;-67
2023/08/15 09:37:53;;;;;;;8.68;3.50;;;21.90;99.90;;;;;;5000382;28;20042;-66
2023/08/15 09:40:22;;;;;;;11.95;4.00;;;21.90;99.90;;;;;;4982627;28;20412;-67
2023/08/15 09:42:48;;;;;;;8.82;4.18;;;21.80;99.90;;;;;;4980564;28;20039;-67
2023/08/15 09:45:16;;;;;;;7.93;4.00;;;21.80;99.90;;;;;;4990889;28;20041;-67
2023/08/15 09:47:43;;;;;;;9.23;3.60;;;21.80;99.90;;;;;;4987543;28;20050;-67
2023/08/15 09:50:11;;;;;;;7.93;3.78;;;21.90;99.90;;;;;;4971965;28;20048;-68
2023/08/15 09:52:55;;;;;;;9.05;4.05;;;22.00;99.90;;;;;;4989459;28;20454;-68
2023/08/15 09:55:21;;;;;;;9.70;3.60;;;22.10;99.90;;;;;;4981792;28;20049;-67
2023/08/15 09:57:47;;;;;;;6.82;3.70;;;22.10;99.90;;;;;;4990825;28;20045;-67
2023/08/15 10:00:16;;;;;;;9.07;3.78;;;22.20;99.90;;;;;;4982520;28;20041;-67
2023/08/15 10:02:45;;;;;;;8.70;3.75;;;22.40;99.90;;;;;;4971257;28;20054;-67
2023/08/15 10:05:13;;;;;;;8.30;3.33;;;22.40;99.90;;;;;;4988109;28;20045;-67
2023/08/15 10:07:41;;;;;;;9.35;3.60;;;22.30;99.90;;;;;;4991558;28;20053;-67
2023/08/15 10:10:08;;;;;;;8.90;3.65;;;22.30;99.90;;;;;;4999531;28;20668;-67
2023/08/15 10:12:36;;;;;;;7.35;3.40;;;22.20;99.90;;;;;;4993277;28;20046;-67
2023/08/15 10:15:03;;;;;;;10.05;3.33;;;22.30;99.90;;;;;;4982514;28;20050;-67
2023/08/15 10:17:29;;;;;;;10.25;4.50;;;22.50;99.90;;;;;;4989448;28;20070;-68
2023/08/15 10:20:00;;;;;;;7.45;3.50;;;22.70;99.90;;;;;;4995867;28;20034;-67
2023/08/15 10:22:26;;;;;;;9.50;3.42;;;22.80;99.90;;;;;;4998180;28;20463;-67
2023/08/15 10:24:51;;;;;;;6.25;3.25;;;22.90;99.90;;;;;;5000337;28;20134;-66
2023/08/15 10:27:20;;;;;;;6.75;3.05;;;22.90;99.90;;;;;;4992158;28;20153;-65
2023/08/15 10:29:58;;;;;;;6.13;3.05;;;22.80;99.90;;;;;;4988364;28;20046;-68
2023/08/15 10:32:30;;;;;;;5.57;2.90;;;23.00;99.90;;;;;;4978293;28;20105;-67
2023/08/15 10:35:01;;;;;;;7.53;3.20;;;23.10;99.90;;;;;;4979003;28;20824;-67
2023/08/15 10:37:27;;;;;;;8.15;4.15;;;23.30;99.90;;;;;;4976020;28;20112;-68
2023/08/15 10:40:08;;;;;;;8.65;4.03;;;23.50;99.90;;;;;;4960875;28;20041;-69
2023/08/15 10:43:02;;;;;;;7.22;3.55;;;23.50;99.90;;;;;;4982032;28;20049;-68
2023/08/15 10:45:31;;;;;;;5.82;3.10;;;23.30;99.90;;;;;;4977484;28;20043;-69
2023/08/15 10:47:57;;;;;;;7.05;3.22;;;23.10;99.90;;;;;;4995008;28;20037;-69
2023/08/15 10:50:23;;;;;;;7.88;3.50;;;23.00;99.90;;;;;;4986724;28;20057;-68
2023/08/15 10:53:00;;;;;;;6.38;3.63;;;22.90;99.90;;;;;;4988006;28;20492;-68
2023/08/15 10:55:36;;;;;;;9.25;3.40;;;22.90;99.90;;;;;;4997767;28;20038;-68
2023/08/15 10:58:11;;;;;;;5.07;3.30;;;22.80;99.90;;;;;;4975950;28;20046;-68
2023/08/15 11:00:39;;;;;;;6.38;3.47;;;22.90;99.90;;;;;;5009081;28;20050;-67
2023/08/15 11:03:06;;;;;;;8.18;4.38;;;22.90;99.90;;;;;;5011197;28;20647;-66
2023/08/15 11:05:32;;;;;;;7.90;4.00;;;22.90;99.90;;;;;;5007923;28;20061;-67
2023/08/15 11:08:19;;;;;;;10.93;3.85;;;23.00;99.90;;;;;;4996601;28;20034;-66
2023/08/15 11:10:49;;;;;;;6.10;3.10;;;23.10;99.90;;;;;;5007840;28;20037;-67
2023/08/15 11:13:18;;;;;;;5.32;3.00;;;23.20;99.90;;;;;;5015181;28;20042;-67
2023/08/15 11:15:45;;;;;;;6.75;3.70;;;23.30;99.90;;;;;;5007348;28;20127;-66
2023/08/15 11:18:11;;;;;;;7.55;3.30;;;23.30;99.90;;;;;;4990007;28;20042;-66
2023/08/15 11:20:38;;;;;;;6.22;3.50;;;23.40;99.90;;;;;;4997135;28;20404;-68
2023/08/15 11:23:04;;;;;;;7.28;3.30;;;23.40;99.90;;;;;;5004418;28;20037;-67
2023/08/15 11:25:30;;;;;;;7.20;3.50;;;23.40;99.90;;;;;;5013541;28;20034;-66
2023/08/15 11:27:55;;;;;;;7.78;3.38;;;23.50;99.90;;;;;;5014839;28;20065;-67
2023/08/15 11:30:21;;;;;;;9.30;3.95;;;23.70;99.90;;;;;;5009109;28;20516;-66
2023/08/15 11:32:46;;;;;;;5.25;3.10;;;23.70;99.90;;;;;;4998527;28;20038;-68
2023/08/15 11:35:13;;;;;;;5.93;3.20;;;23.70;99.90;;;;;;5014280;28;20034;-66
2023/08/15 11:37:40;;;;;;;6.05;3.65;;;23.60;99.90;;;;;;5014283;28;20125;-67
2023/08/15 11:40:06;;;;;;;7.18;3.50;;;23.80;99.90;;;;;;5006820;28;20110;-68
2023/08/15 11:42:34;;;;;;;6.30;3.47;;;23.90;99.90;;;;;;4992574;28;20052;-68
2023/08/15 11:45:06;;;;;;;7.50;3.92;;;24.00;99.90;;;;;;4996550;28;20042;-68
2023/08/15 11:47:32;;;;;;;7.30;3.85;;;24.20;99.90;;;;;;5005170;28;20132;-66
2023/08/15 11:49:57;;;;;;;6.70;3.40;;;24.20;99.90;;;;;;5001879;28;20081;-66
2023/08/15 11:52:23;;;;;;;9.70;4.03;;;24.20;99.90;;;;;;5014121;28;20526;-66
2023/08/15 11:54:49;;;;;;;8.68;3.97;;;24.30;99.90;;;;;;5008382;28;20037;-66
2023/08/15 11:57:32;;;;;;;7.20;4.13;;;24.40;99.90;;;;;;4997562;28;20528;-67
2023/08/15 11:59:57;;;;;;;7.28;3.83;;;24.60;99.90;;;;;;4995922;28;20046;-67
2023/08/15 12:02:23;;;;;;;7.57;3.65;;;25.00;99.90;;;;;;5004045;28;20056;-66
2023/08/15 12:04:48;;;;;;;4.97;3.85;;;25.30;99.90;;;;;;4990203;28;20646;-67
2023/08/15 12:07:14;;;;;;;10.43;4.25;;;25.00;99.90;;;;;;5002228;28;20042;-66
2023/08/15 12:09:40;;;;;;;7.57;4.22;;;24.70;99.90;;;;;;5010283;28;20373;-67
2023/08/15 12:12:06;;;;;;;8.57;3.88;;;24.50;99.90;;;;;;5003097;28;20617;-67
2023/08/15 12:14:32;;;;;;;7.55;4.75;;;24.40;99.90;;;;;;4997438;28;20054;-66
2023/08/15 12:16:57;;;;;;;8.82;4.53;;;24.10;99.90;;;;;;5009347;28;20038;-66
2023/08/15 12:19:23;;;;;;;7.00;4.45;;;24.00;99.90;;;;;;4996248;28;20077;-67
2023/08/15 12:21:50;;;;;;;9.75;5.22;;;23.90;99.90;;;;;;5000275;28;20125;-67
2023/08/15 12:24:15;;;;;;;10.43;4.50;;;23.80;99.90;;;;;;4996522;28;20117;-67
2023/08/15 12:26:41;;;;;;;10.10;4.88;;;23.70;99.90;;;;;;4988158;28;20204;-71
2023/08/15 12:29:06;;;;;;;7.45;4.32;;;23.60;99.90;;;;;;4991226;28;20041;-68
2023/08/15 12:31:32;;;;;;;9.48;4.60;;;23.50;99.90;;;;;;5001108;28;20579;-68
2023/08/15 12:33:57;;;;;;;12.02;4.80;;;23.40;99.90;;;;;;5008984;28;20113;-68